sensor_id;sensor_type;location;lat;lon;timestamp;temperature;humidity
48376;DHT22;34178;50.904;11.560;2023-07-13T01:32:24;20.20;82.50
48376;DHT22;34178;50.904;11.560;2023-07-13T01:34:51;20.20;82.80
48376;DHT22;34178;50.904;11.560;2023-07-13T01:37:20;20.10;83.10
48376;DHT22;34178;50.904;11.560;2023-07-13T01:39:46;20.10;82.50
48376;DHT22;34178;50.904;11.560;2023-07-13T01:42:12;20.00;83.00
48376;DHT22;34178;50.904;11.560;2023-07-13T01:44:38;19.90;83.40
48376;DHT22;34178;50.904;11.560;2023-07-13T01:47:04;19.90;83.30
48376;DHT22;34178;50.904;11.560;2023-07-13T05:26:32;19.20;90.00
48376;DHT22;34178;50.904;11.560;2023-07-13T10:28:42;25.60;61.70
48376;DHT22;34178;50.904;11.560;2023-07-13T10:31:14;25.60;60.30
48376;DHT22;34178;50.904;11.560;2023-07-13T10:33:40;25.20;61.40
48376;DHT22;34178;50.904;11.560;2023-07-13T10:38:50;25.00;61.30
48376;DHT22;34178;50.904;11.560;2023-07-13T10:41:21;25.40;61.60
48376;DHT22;34178;50.904;11.560;2023-07-13T10:43:53;25.60;61.30
48376;DHT22;34178;50.904;11.560;2023-07-13T10:46:23;26.00;60.60
48376;DHT22;34178;50.904;11.560;2023-07-13T11:30:25;25.90;60.20
48376;DHT22;34178;50.904;11.560;2023-07-13T11:33:10;26.30;62.30
48376;DHT22;34178;50.904;11.560;2023-07-13T11:35:46;26.50;59.40
48376;DHT22;34178;50.904;11.560;2023-07-13T11:40:53;26.50;58.50
48376;DHT22;34178;50.904;11.560;2023-07-13T11:43:19;26.60;61.80
48376;DHT22;34178;50.904;11.560;2023-07-13T11:45:49;26.70;59.10
48376;DHT22;34178;50.904;11.560;2023-07-13T20:01:22;20.90;71.40
48376;DHT22;34178;50.904;11.560;2023-07-13T20:03:48;20.80;71.30
48376;DHT22;34178;50.904;11.560;2023-07-13T20:06:34;20.70;72.30
48376;DHT22;34178;50.904;11.560;2023-07-13T20:09:05;20.60;72.40
48376;DHT22;34178;50.904;11.560;2023-07-13T20:11:35;20.60;71.90
48376;DHT22;34178;50.904;11.560;2023-07-13T20:14:00;20.60;72.40
48376;DHT22;34178;50.904;11.560;2023-07-13T20:16:26;20.50;72.50
48376;DHT22;34178;50.904;11.560;2023-07-13T20:18:53;20.50;72.40
48376;DHT22;34178;50.904;11.560;2023-07-13T20:21:19;20.50;73.00
48376;DHT22;34178;50.904;11.560;2023-07-13T20:23:44;20.50;72.80
48376;DHT22;34178;50.904;11.560;2023-07-13T20:26:10;20.40;72.70
48376;DHT22;34178;50.904;11.560;2023-07-13T22:30:18;17.60;91.90
48376;DHT22;34178;50.904;11.560;2023-07-13T22:32:44;17.60;92.20
48376;DHT22;34178;50.904;11.560;2023-07-13T22:35:14;17.60;92.40
48376;DHT22;34178;50.904;11.560;2023-07-13T22:37:43;17.50;92.70
48376;DHT22;34178;50.904;11.560;2023-07-13T22:40:13;17.60;92.90
48376;DHT22;34178;50.904;11.560;2023-07-13T22:42:39;17.50;92.80
48376;DHT22;34178;50.904;11.560;2023-07-13T22:45:07;17.50;93.00
48376;DHT22;34178;50.904;11.560;2023-07-13T22:47:34;17.50;93.10
48376;DHT22;34178;50.904;11.560;2023-07-13T22:55:14;17.20;94.30
48376;DHT22;34178;50.904;11.560;2023-07-13T22:57:47;17.10;94.80
48376;DHT22;34178;50.904;11.560;2023-07-13T23:02:49;16.80;95.50
48376;DHT22;34178;50.904;11.560;2023-07-13T23:05:16;16.70;96.00
48376;DHT22;34178;50.904;11.560;2023-07-13T23:07:42;16.60;96.40
48376;DHT22;34178;50.904;11.560;2023-07-13T23:10:15;16.60;96.80
48376;DHT22;34178;50.904;11.560;2023-07-13T23:12:42;16.60;97.00
48376;DHT22;34178;50.904;11.560;2023-07-13T23:15:15;16.50;97.20
48376;DHT22;34178;50.904;11.560;2023-07-13T23:17:47;16.50;97.60
48376;DHT22;34178;50.904;11.560;2023-07-13T23:22:49;16.40;98.30
48376;DHT22;34178;50.904;11.560;2023-07-13T23:25:16;16.30;98.40
48376;DHT22;34178;50.904;11.560;2023-07-13T23:27:42;16.30;98.60
48376;DHT22;34178;50.904;11.560;2023-07-13T23:30:17;16.30;99.10
48376;DHT22;34178;50.904;11.560;2023-07-13T23:32:44;16.20;99.00
48376;DHT22;34178;50.904;11.560;2023-07-13T23:35:15;16.00;99.40
48376;DHT22;34178;50.904;11.560;2023-07-13T23:37:42;15.80;99.90
48376;DHT22;34178;50.904;11.560;2023-07-13T23:40:26;15.70;99.90
48376;DHT22;34178;50.904;11.560;2023-07-13T23:42:52;15.70;99.90
48376;DHT22;34178;50.904;11.560;2023-07-13T23:45:20;15.70;99.90
48376;DHT22;34178;50.904;11.560;2023-07-13T23:47:48;15.70;99.90
48376;DHT22;34178;50.904;11.560;2023-07-13T23:50:17;15.80;99.90
48376;DHT22;34178;50.904;11.560;2023-07-13T23:52:44;15.60;99.90
48376;DHT22;34178;50.904;11.560;2023-07-13T23:55:25;15.50;99.90
48376;DHT22;34178;50.904;11.560;2023-07-13T23:57:51;15.50;99.90
